createdAt,value
2018-12-06T00:02:26.694Z,7.6
2018-12-06T00:12:41.287Z,7.6
2018-12-06T00:22:54.972Z,7.7
2018-12-06T00:33:08.784Z,7.6
2018-12-06T00:43:23.826Z,7.5
2018-12-06T00:53:37.836Z,7.6
2018-12-06T01:03:53.087Z,7.6
2018-12-06T01:14:08.667Z,7.6
2018-12-06T01:24:23.563Z,7.6
2018-12-06T01:34:37.298Z,8
2018-12-06T01:44:51.191Z,8.3
2018-12-06T01:55:04.915Z,8.3
2018-12-06T02:05:18.964Z,8.4
2018-12-06T02:15:33.585Z,8.5
2018-12-06T02:25:47.388Z,8.4
2018-12-06T02:36:01.103Z,8.3
2018-12-06T02:46:15.293Z,8.4
2018-12-06T02:56:29.777Z,8.5
2018-12-06T03:06:45.128Z,8.4
2018-12-06T03:16:59.992Z,8.6
2018-12-06T03:27:14.082Z,8.8
2018-12-06T03:37:28.682Z,8.8
2018-12-06T03:47:44.149Z,9
2018-12-06T03:57:58.528Z,8.9
2018-12-06T04:08:13.779Z,8.7
2018-12-06T04:18:29.114Z,8.6
2018-12-06T04:28:43.983Z,8.6
2018-12-06T04:38:58.598Z,8.6
2018-12-06T04:49:13.021Z,8.8
2018-12-06T04:59:26.998Z,8.9
2018-12-06T05:09:41.876Z,9.1
2018-12-06T05:19:57.252Z,9
2018-12-06T05:30:10.971Z,8.9
2018-12-06T05:40:24.917Z,8.9
2018-12-06T05:50:40.399Z,8.9
2018-12-06T06:00:54.881Z,8.9
2018-12-06T06:11:09.640Z,8.9
2018-12-06T06:21:24.918Z,9
2018-12-06T06:31:39.347Z,9
2018-12-06T06:41:53.131Z,9.1
2018-12-06T06:52:08.798Z,9.1
2018-12-06T07:02:23.721Z,9.2
2018-12-06T07:12:37.441Z,9.3
2018-12-06T07:22:51.660Z,9.4
2018-12-06T07:33:05.615Z,9.5
2018-12-06T07:43:19.726Z,9.4
2018-12-06T07:53:33.740Z,9.5
2018-12-06T08:03:47.476Z,9.6
2018-12-06T08:14:02.643Z,9.8
2018-12-06T08:24:17.162Z,9.8
2018-12-06T08:34:31.326Z,10
2018-12-06T08:44:45.982Z,10.1
2018-12-06T08:54:59.906Z,10.3
2018-12-06T09:05:13.771Z,10.3
2018-12-06T09:15:28.018Z,10.3
2018-12-06T09:25:42.907Z,10.6
2018-12-06T09:35:57.053Z,10.6
2018-12-06T09:46:11.901Z,10.6
2018-12-06T09:56:26.499Z,10.8
2018-12-06T10:06:41.715Z,10.8
2018-12-06T10:16:56.494Z,10.8
2018-12-06T10:27:10.353Z,11
2018-12-06T10:37:25.083Z,11
2018-12-06T10:47:38.893Z,11.1
2018-12-06T10:57:52.671Z,11.2
2018-12-06T11:08:08.369Z,11.3
2018-12-06T11:18:22.837Z,11.4
2018-12-06T11:28:37.117Z,11.4
2018-12-06T11:38:52.605Z,11.5
2018-12-06T11:49:06.688Z,11.7
2018-12-06T11:59:21.408Z,11.7
2018-12-06T12:09:36.154Z,12
2018-12-06T12:19:51.200Z,12
2018-12-06T12:30:06.596Z,12.1
2018-12-06T12:40:21.101Z,12.1
2018-12-06T12:50:35.067Z,12.2
2018-12-06T13:00:49.396Z,12.2
2018-12-06T13:11:04.381Z,12.1
2018-12-06T13:21:19.299Z,12.2
2018-12-06T13:31:33.695Z,12.3
2018-12-06T13:41:49.303Z,12.2
2018-12-06T13:52:03.762Z,12.1
2018-12-06T14:02:18.472Z,12.1
2018-12-06T14:12:34.025Z,12.2
2018-12-06T14:22:49.101Z,12.2
2018-12-06T14:33:02.972Z,12.1
2018-12-06T14:43:16.858Z,12.1
2018-12-06T14:53:31.115Z,12.1
2018-12-06T15:03:45.480Z,12
2018-12-06T15:14:00.125Z,12.1
2018-12-06T15:24:15.348Z,12.1
2018-12-06T15:34:29.605Z,12.1
2018-12-06T15:44:43.775Z,12
2018-12-06T15:54:57.491Z,12.1
2018-12-06T16:05:12.402Z,12
2018-12-06T16:15:27.577Z,12.1
2018-12-06T16:25:43.292Z,12
2018-12-06T16:35:58.343Z,12
2018-12-06T16:46:12.559Z,12
2018-12-06T16:56:27.097Z,12
2018-12-06T17:06:42.638Z,12
2018-12-06T17:16:56.847Z,12
2018-12-06T17:27:11.344Z,12.3
2018-12-06T17:37:25.213Z,12.1
2018-12-06T17:47:39.745Z,12
2018-12-06T17:57:54.596Z,12
2018-12-06T18:08:09.909Z,12
2018-12-06T18:18:25.079Z,12
2018-12-06T18:28:40.747Z,12
2018-12-06T18:38:55.392Z,12.1
2018-12-06T18:49:10.480Z,12.1
2018-12-06T18:59:25.904Z,12.1
2018-12-06T19:09:40.676Z,12.2
2018-12-06T19:19:54.348Z,12.1
2018-12-06T19:30:08.252Z,12.1
2018-12-06T19:40:23.626Z,12.1
2018-12-06T19:50:38.956Z,12.1
2018-12-06T20:00:54.384Z,12.1
2018-12-06T20:11:08.800Z,12.3
2018-12-06T20:21:22.553Z,12.3
2018-12-06T20:31:38.056Z,12.4
2018-12-06T20:41:52.048Z,12.3
2018-12-06T20:52:06.005Z,12.3
2018-12-06T21:02:21.381Z,12.4
2018-12-06T21:12:35.015Z,12.5
2018-12-06T21:22:49.652Z,12.5
2018-12-06T21:33:04.949Z,12.7
2018-12-06T21:43:19.658Z,12.7
2018-12-06T21:53:34.623Z,12.7
2018-12-06T22:03:49.152Z,12.5
2018-12-06T22:14:03.036Z,12.3
2018-12-06T22:24:17.543Z,12.3
2018-12-06T22:34:31.540Z,12.3
2018-12-06T22:44:46.110Z,12.4
2018-12-06T22:55:01.061Z,12.4
2018-12-06T23:05:15.518Z,12.4
2018-12-06T23:15:30.682Z,12.3
2018-12-06T23:25:45.531Z,12.3
2018-12-06T23:36:00.070Z,12.2
2018-12-06T23:46:14.979Z,12.1
2018-12-06T23:56:29.809Z,12
